createdAt,value
2023-02-17T00:02:29.000Z,101389.97
2023-02-17T00:05:31.862Z,101388.22
2023-02-17T00:08:35.647Z,101393.41
2023-02-17T00:11:38.494Z,101394.50
2023-02-17T00:14:41.544Z,101388.06
2023-02-17T00:17:44.626Z,101398.28
2023-02-17T00:20:47.650Z,101401.88
2023-02-17T00:23:51.384Z,101397.69
2023-02-17T00:26:54.546Z,101396.41
2023-02-17T00:29:58.430Z,101387.94
2023-02-17T00:33:03.234Z,101396.72
2023-02-17T00:36:08.849Z,101403.00
2023-02-17T00:39:17.665Z,101407.88
2023-02-17T00:42:21.802Z,101401.44
2023-02-17T00:45:24.710Z,101403.97
2023-02-17T00:48:27.542Z,101392.13
2023-02-17T00:51:30.515Z,101397.78
2023-02-17T00:54:33.582Z,101399.34
2023-02-17T00:57:37.524Z,101400.88
2023-02-17T01:00:40.481Z,101397.72
2023-02-17T01:03:44.487Z,101399.31
2023-02-17T01:06:47.695Z,101392.38
2023-02-17T01:09:50.592Z,101386.25
2023-02-17T01:12:54.749Z,101391.44
2023-02-17T01:15:58.941Z,101382.47
2023-02-17T01:19:13.610Z,101376.59
2023-02-17T01:22:16.549Z,101385.03
2023-02-17T01:25:19.519Z,101382.88
2023-02-17T01:28:23.096Z,101384.28
2023-02-17T01:31:27.731Z,101390.94
2023-02-17T01:34:30.778Z,101388.28
2023-02-17T01:37:35.395Z,101390.22
2023-02-17T01:40:45.610Z,101394.44
2023-02-17T01:44:18.912Z,101389.22
2023-02-17T01:47:21.726Z,101376.47
2023-02-17T01:50:30.769Z,101387.00
2023-02-17T01:53:42.530Z,101388.28
2023-02-17T01:56:48.663Z,101385.63
2023-02-17T01:59:52.571Z,101381.22
2023-02-17T02:02:56.071Z,101379.06
2023-02-17T02:06:00.661Z,101381.13
2023-02-17T02:09:12.786Z,101370.38
2023-02-17T02:12:25.385Z,101372.41
2023-02-17T02:15:35.058Z,101365.47
2023-02-17T02:18:51.699Z,101355.56
2023-02-17T02:22:36.650Z,101372.25
2023-02-17T02:25:46.345Z,101366.91
2023-02-17T02:29:10.580Z,101355.97
2023-02-17T02:32:29.130Z,101359.63
2023-02-17T02:35:35.113Z,101357.97
2023-02-17T02:38:57.695Z,101354.19
2023-02-17T02:42:13.201Z,101360.69
2023-02-17T02:45:18.380Z,101357.56
2023-02-17T02:48:24.110Z,101356.78
2023-02-17T02:51:40.288Z,101357.59
2023-02-17T02:55:08.363Z,101363.41
2023-02-17T02:58:20.457Z,101364.16
2023-02-17T03:01:54.160Z,101355.34
2023-02-17T03:05:25.171Z,101358.19
2023-02-17T03:08:57.936Z,101362.09
2023-02-17T03:12:01.082Z,101355.38
2023-02-17T03:15:19.742Z,101350.69
2023-02-17T03:18:22.624Z,101350.69
2023-02-17T03:21:35.478Z,101351.19
2023-02-17T03:24:38.582Z,101350.22
2023-02-17T03:27:44.042Z,101348.97
2023-02-17T03:30:48.001Z,101345.53
2023-02-17T03:33:53.737Z,101350.69
2023-02-17T03:36:56.713Z,101345.34
2023-02-17T03:39:59.577Z,101356.03
2023-02-17T03:43:02.557Z,101352.88
2023-02-17T03:46:05.926Z,101360.53
2023-02-17T03:49:09.080Z,101367.44
2023-02-17T03:52:12.044Z,101370.63
2023-02-17T03:55:14.996Z,101366.25
2023-02-17T03:58:17.848Z,101368.44
2023-02-17T04:01:21.787Z,101371.91
2023-02-17T04:04:24.948Z,101367.53
2023-02-17T04:07:28.171Z,101373.66
2023-02-17T04:10:31.286Z,101374.59
2023-02-17T04:13:35.501Z,101377.59
2023-02-17T04:16:39.440Z,101367.88
2023-02-17T04:19:42.372Z,101370.22
2023-02-17T04:22:46.387Z,101363.75
2023-02-17T04:25:49.943Z,101366.56
2023-02-17T04:28:52.945Z,101360.72
2023-02-17T04:31:56.002Z,101363.25
2023-02-17T04:34:58.900Z,101359.66
2023-02-17T04:38:01.960Z,101362.16
2023-02-17T04:41:07.173Z,101363.88
2023-02-17T04:44:10.198Z,101364.69
2023-02-17T04:47:13.050Z,101361.97
2023-02-17T04:50:16.050Z,101363.72
2023-02-17T04:53:19.355Z,101362.28
2023-02-17T04:56:22.259Z,101359.63
2023-02-17T04:59:25.702Z,101362.56
2023-02-17T05:02:28.926Z,101363.53
2023-02-17T05:05:31.947Z,101365.41
2023-02-17T05:08:34.900Z,101364.13
2023-02-17T05:11:37.798Z,101354.97
2023-02-17T05:14:40.735Z,101360.81
2023-02-17T05:17:43.648Z,101362.34
2023-02-17T05:20:46.525Z,101365.03
2023-02-17T05:23:49.443Z,101357.59
2023-02-17T05:26:52.356Z,101353.38
2023-02-17T05:29:56.021Z,101357.16
2023-02-17T05:33:01.006Z,101346.91
2023-02-17T05:36:07.136Z,101333.03
2023-02-17T05:39:10.436Z,101338.16
2023-02-17T05:42:17.160Z,101339.13
2023-02-17T05:45:20.141Z,101346.00
2023-02-17T05:48:23.085Z,101351.69
2023-02-17T05:51:26.014Z,101352.59
2023-02-17T05:54:28.834Z,101354.94
2023-02-17T05:57:32.384Z,101350.59
2023-02-17T06:00:35.370Z,101353.78
2023-02-17T06:03:39.126Z,101354.50
2023-02-17T06:06:42.123Z,101354.78
2023-02-17T06:09:47.159Z,101349.16
2023-02-17T06:12:50.223Z,101361.09
2023-02-17T06:15:59.046Z,101351.88
2023-02-17T06:19:02.653Z,101351.88
2023-02-17T06:22:05.956Z,101358.41
2023-02-17T06:25:09.202Z,101347.97
2023-02-17T06:28:12.995Z,101348.88
2023-02-17T06:31:16.949Z,101339.50
2023-02-17T06:34:19.880Z,101354.38
2023-02-17T06:37:23.963Z,101360.81
2023-02-17T06:40:28.748Z,101352.03
2023-02-17T06:43:37.435Z,101361.47
2023-02-17T06:46:46.441Z,101356.47
2023-02-17T06:49:49.649Z,101360.28
2023-02-17T06:52:53.629Z,101371.75
2023-02-17T06:55:57.454Z,101365.34
2023-02-17T06:59:01.893Z,101362.19
2023-02-17T07:02:08.926Z,101366.50
2023-02-17T07:05:34.333Z,101363.59
2023-02-17T07:08:48.212Z,101369.28
2023-02-17T07:11:52.522Z,101366.63
2023-02-17T07:14:58.295Z,101370.44
2023-02-17T07:18:03.804Z,101368.88
2023-02-17T07:21:09.338Z,101379.63
2023-02-17T07:24:14.466Z,101386.22
2023-02-17T07:27:17.424Z,101382.84
2023-02-17T07:30:37.026Z,101378.75
2023-02-17T07:33:41.404Z,101382.53
2023-02-17T07:36:44.880Z,101376.63
2023-02-17T07:39:57.260Z,101381.88
2023-02-17T07:43:00.765Z,101376.50
2023-02-17T07:46:09.564Z,101362.06
2023-02-17T07:53:32.430Z,101364.59
2023-02-17T08:00:45.616Z,101345.56
2023-02-17T08:03:58.676Z,101341.47
2023-02-17T08:07:24.529Z,101344.94
2023-02-17T08:10:52.795Z,101339.06
2023-02-17T08:14:01.693Z,101344.06
2023-02-17T08:17:09.183Z,101344.56
2023-02-17T08:20:15.687Z,101341.22
2023-02-17T08:23:23.699Z,101340.59
2023-02-17T08:29:48.188Z,101328.22
2023-02-17T08:32:53.776Z,101330.56
2023-02-17T08:36:07.556Z,101336.41
2023-02-17T08:39:23.370Z,101330.59
2023-02-17T08:42:45.262Z,101319.06
2023-02-17T08:50:04.148Z,101325.41
2023-02-17T08:53:55.659Z,101320.72
2023-02-17T09:08:16.621Z,101305.53
2023-02-17T09:11:33.541Z,101308.19
2023-02-17T09:14:40.203Z,101303.97
2023-02-17T09:17:52.726Z,101311.31
2023-02-17T09:21:03.191Z,101311.19
2023-02-17T09:24:08.020Z,101306.31
2023-02-17T09:27:23.493Z,101305.44
2023-02-17T09:30:40.164Z,101310.72
2023-02-17T09:34:31.032Z,101328.16
2023-02-17T09:37:43.663Z,101323.00
2023-02-17T09:40:50.501Z,101325.97
2023-02-17T09:43:58.691Z,101321.09
2023-02-17T09:47:15.233Z,101318.28
2023-02-17T09:50:47.677Z,101324.50
2023-02-17T09:54:23.822Z,101317.44
2023-02-17T09:57:39.636Z,101315.00
2023-02-17T10:00:47.262Z,101300.97
2023-02-17T10:03:56.377Z,101307.53
2023-02-17T10:07:08.148Z,101295.25
2023-02-17T10:10:47.830Z,101295.53
2023-02-17T10:13:57.565Z,101299.69
2023-02-17T10:17:11.593Z,101296.78
2023-02-17T10:20:31.780Z,101292.75
2023-02-17T10:23:35.428Z,101288.28
2023-02-17T10:26:51.142Z,101280.28
2023-02-17T10:30:14.668Z,101264.09
2023-02-17T10:33:45.100Z,101263.81
2023-02-17T10:37:02.189Z,101256.22
2023-02-17T10:40:23.007Z,101245.44
2023-02-17T10:43:38.131Z,101247.03
2023-02-17T10:46:43.425Z,101233.63
2023-02-17T10:49:58.464Z,101226.25
2023-02-17T10:53:02.015Z,101230.16
2023-02-17T10:56:23.005Z,101229.06
2023-02-17T10:59:33.673Z,101227.53
2023-02-17T11:02:41.471Z,101218.19
2023-02-17T11:05:44.435Z,101215.28
2023-02-17T11:09:02.217Z,101211.06
2023-02-17T11:12:25.025Z,101204.72
2023-02-17T11:15:38.079Z,101204.28
2023-02-17T11:18:49.407Z,101183.19
2023-02-17T11:21:54.825Z,101190.31
2023-02-17T11:25:00.403Z,101180.50
2023-02-17T11:28:24.981Z,101178.13
2023-02-17T11:31:38.067Z,101179.69
2023-02-17T11:34:47.228Z,101178.06
2023-02-17T11:38:01.465Z,101174.91
2023-02-17T11:41:07.711Z,101169.78
2023-02-17T11:44:29.456Z,101150.91
2023-02-17T11:47:53.781Z,101156.94
2023-02-17T11:51:27.387Z,101145.66
2023-02-17T11:54:49.171Z,101139.88
2023-02-17T11:58:02.044Z,101138.59
2023-02-17T12:01:42.439Z,101130.44
2023-02-17T12:04:50.995Z,101131.53
2023-02-17T12:08:31.660Z,101122.03
2023-02-17T12:11:52.635Z,101125.72
2023-02-17T12:15:28.630Z,101117.00
2023-02-17T12:18:44.334Z,101114.06
2023-02-17T12:22:19.575Z,101106.47
2023-02-17T12:25:38.466Z,101101.78
2023-02-17T12:29:08.503Z,101097.34
2023-02-17T12:32:55.420Z,101096.47
2023-02-17T12:36:08.281Z,101085.34
2023-02-17T12:39:30.857Z,101086.47
2023-02-17T12:43:03.358Z,101080.53
2023-02-17T12:46:17.163Z,101078.63
2023-02-17T12:50:01.839Z,101077.75
2023-02-17T12:53:49.965Z,101072.19
2023-02-17T12:56:59.754Z,101069.66
2023-02-17T13:00:20.957Z,101064.44
2023-02-17T13:03:25.174Z,101074.22
2023-02-17T13:06:39.850Z,101063.19
2023-02-17T13:09:46.842Z,101057.28
2023-02-17T13:13:30.487Z,101060.63
2023-02-17T13:16:43.465Z,101055.53
2023-02-17T13:20:02.723Z,101054.09
2023-02-17T13:23:11.301Z,101069.88
2023-02-17T13:26:25.919Z,101062.25
2023-02-17T13:29:35.844Z,101069.41
2023-02-17T13:32:39.508Z,101068.59
2023-02-17T13:35:43.662Z,101059.66
2023-02-17T13:39:08.537Z,101063.88
2023-02-17T13:42:38.144Z,101064.44
2023-02-17T13:45:47.082Z,101054.19
2023-02-17T13:49:05.589Z,101062.34
2023-02-17T13:52:22.393Z,101057.28
2023-02-17T13:55:26.052Z,101059.00
2023-02-17T13:58:32.284Z,101058.13
2023-02-17T14:01:44.071Z,101048.50
2023-02-17T14:04:50.408Z,101045.94
2023-02-17T14:08:03.491Z,101036.31
2023-02-17T14:11:13.251Z,101030.84
2023-02-17T14:14:17.592Z,101017.97
2023-02-17T14:17:33.143Z,101017.69
2023-02-17T14:20:36.609Z,101016.44
2023-02-17T14:23:55.047Z,101008.72
2023-02-17T14:27:04.269Z,101018.16
2023-02-17T14:30:12.766Z,101010.66
2023-02-17T14:33:17.091Z,101008.81
2023-02-17T14:36:37.148Z,101004.13
2023-02-17T14:39:40.284Z,101009.66
2023-02-17T14:42:44.597Z,101005.75
2023-02-17T14:45:48.378Z,100995.94
2023-02-17T14:48:53.322Z,100984.06
2023-02-17T14:51:57.069Z,100996.22
2023-02-17T14:55:00.377Z,100985.06
2023-02-17T14:58:03.910Z,100983.97
2023-02-17T15:01:07.198Z,100980.75
2023-02-17T15:04:10.322Z,100980.38
2023-02-17T15:07:17.048Z,100973.91
2023-02-17T15:10:28.259Z,100958.09
2023-02-17T15:13:32.341Z,100958.78
2023-02-17T15:16:35.918Z,100949.97
2023-02-17T15:19:39.091Z,100951.72
2023-02-17T15:22:44.407Z,100947.81
2023-02-17T15:25:48.504Z,100940.94
2023-02-17T15:28:51.832Z,100951.50
2023-02-17T15:32:02.026Z,100946.53
2023-02-17T15:35:18.699Z,100943.06
2023-02-17T15:38:27.265Z,100944.03
2023-02-17T15:41:31.619Z,100937.75
2023-02-17T15:44:45.146Z,100942.13
2023-02-17T15:47:50.600Z,100943.66
2023-02-17T15:50:54.483Z,100942.50
2023-02-17T15:54:01.855Z,100942.50
2023-02-17T15:57:07.795Z,100944.16
2023-02-17T16:00:23.534Z,100946.94
2023-02-17T16:03:26.662Z,100941.19
2023-02-17T16:06:30.363Z,100942.72
2023-02-17T16:09:33.583Z,100935.03
2023-02-17T16:12:36.942Z,100938.31
2023-02-17T16:15:40.272Z,100936.91
2023-02-17T16:18:43.501Z,100947.69
2023-02-17T16:21:48.011Z,100949.03
2023-02-17T16:24:51.218Z,100949.91
2023-02-17T16:27:55.182Z,100943.66
2023-02-17T16:30:58.684Z,100940.03
2023-02-17T16:34:04.474Z,100926.03
2023-02-17T16:37:16.657Z,100929.63
2023-02-17T16:40:24.051Z,100928.91
2023-02-17T16:43:27.965Z,100931.19
2023-02-17T16:46:35.633Z,100929.13
2023-02-17T16:49:42.098Z,100928.50
2023-02-17T16:52:45.878Z,100933.94
2023-02-17T16:55:50.819Z,100922.25
2023-02-17T16:58:54.049Z,100916.56
2023-02-17T17:01:58.199Z,100903.09
2023-02-17T17:05:01.760Z,100899.13
2023-02-17T17:08:06.984Z,100902.69
2023-02-17T17:11:20.313Z,100905.81
2023-02-17T17:14:24.877Z,100900.06
2023-02-17T17:17:32.181Z,100895.03
2023-02-17T17:20:40.829Z,100894.78
2023-02-17T17:23:52.962Z,100890.63
2023-02-17T17:27:02.292Z,100899.28
2023-02-17T17:30:07.930Z,100888.72
2023-02-17T17:33:16.437Z,100893.53
2023-02-17T17:36:26.793Z,100886.03
2023-02-17T17:39:30.067Z,100895.59
2023-02-17T17:42:37.739Z,100900.31
2023-02-17T17:45:41.072Z,100898.44
2023-02-17T17:48:44.833Z,100898.19
2023-02-17T17:51:48.796Z,100896.97
2023-02-17T17:54:52.087Z,100898.25
2023-02-17T17:57:59.307Z,100889.31
2023-02-17T18:01:12.940Z,100884.13
2023-02-17T18:04:19.628Z,100890.00
2023-02-17T18:07:23.724Z,100880.38
2023-02-17T18:10:26.776Z,100875.50
2023-02-17T18:13:30.309Z,100883.34
2023-02-17T18:16:34.682Z,100878.09
2023-02-17T18:19:39.828Z,100876.22
2023-02-17T18:22:45.800Z,100881.56
2023-02-17T18:25:49.416Z,100875.28
2023-02-17T18:28:53.829Z,100873.63
2023-02-17T18:31:59.246Z,100874.88
2023-02-17T18:35:03.896Z,100884.13
2023-02-17T18:38:15.016Z,100884.47
2023-02-17T18:41:30.345Z,100871.53
2023-02-17T18:44:36.261Z,100871.19
2023-02-17T18:47:39.851Z,100867.69
2023-02-17T18:50:44.294Z,100862.59
2023-02-17T18:53:51.272Z,100849.22
2023-02-17T18:56:54.740Z,100863.31
2023-02-17T19:00:01.665Z,100854.28
2023-02-17T19:03:06.080Z,100863.75
2023-02-17T19:06:17.332Z,100866.56
2023-02-17T19:09:20.577Z,100853.69
2023-02-17T19:12:26.823Z,100860.28
2023-02-17T19:15:30.223Z,100858.97
2023-02-17T19:18:33.614Z,100859.22
2023-02-17T19:21:36.931Z,100858.50
2023-02-17T19:24:41.809Z,100854.06
2023-02-17T19:27:44.988Z,100863.00
2023-02-17T19:30:48.912Z,100856.31
2023-02-17T19:33:52.007Z,100851.69
2023-02-17T19:36:55.992Z,100847.41
2023-02-17T19:40:02.160Z,100856.72
2023-02-17T19:43:05.615Z,100839.69
2023-02-17T19:46:13.167Z,100841.63
2023-02-17T19:49:16.574Z,100836.44
2023-02-17T19:52:21.158Z,100834.50
2023-02-17T19:55:25.265Z,100837.28
2023-02-17T19:58:28.296Z,100835.25
2023-02-17T20:01:33.756Z,100835.56
2023-02-17T20:04:36.945Z,100837.31
2023-02-17T20:07:40.251Z,100831.88
2023-02-17T20:10:43.615Z,100832.75
2023-02-17T20:13:47.406Z,100833.88
2023-02-17T20:16:53.351Z,100827.97
2023-02-17T20:19:56.586Z,100826.41
2023-02-17T20:22:59.868Z,100829.25
2023-02-17T20:26:11.780Z,100822.56
2023-02-17T20:29:15.118Z,100825.22
2023-02-17T20:32:18.717Z,100816.91
2023-02-17T20:35:22.076Z,100814.81
2023-02-17T20:38:25.587Z,100809.19
2023-02-17T20:41:29.421Z,100809.44
2023-02-17T20:44:32.712Z,100810.59
2023-02-17T20:47:37.970Z,100805.19
2023-02-17T20:50:41.846Z,100805.59
2023-02-17T20:53:44.974Z,100781.47
2023-02-17T20:56:48.662Z,100785.00
2023-02-17T20:59:51.866Z,100788.41
2023-02-17T21:02:57.537Z,100786.09
2023-02-17T21:06:06.944Z,100786.94
2023-02-17T21:09:16.855Z,100783.69
2023-02-17T21:12:21.525Z,100777.72
2023-02-17T21:15:24.910Z,100770.22
2023-02-17T21:18:28.442Z,100769.16
2023-02-17T21:21:31.843Z,100769.34
2023-02-17T21:24:34.939Z,100776.16
2023-02-17T21:27:38.055Z,100759.25
2023-02-17T21:30:41.171Z,100760.47
2023-02-17T21:33:44.619Z,100755.19
2023-02-17T21:36:47.756Z,100761.50
2023-02-17T21:39:50.736Z,100771.34
2023-02-17T21:43:12.367Z,100766.59
2023-02-17T21:46:15.531Z,100763.16
2023-02-17T21:49:18.713Z,100769.97
2023-02-17T21:52:22.339Z,100778.22
2023-02-17T21:55:26.492Z,100778.94
2023-02-17T21:58:29.781Z,100783.50
2023-02-17T22:01:32.834Z,100790.06
2023-02-17T22:04:35.858Z,100799.19
2023-02-17T22:07:39.037Z,100798.31
2023-02-17T22:10:43.163Z,100810.03
2023-02-17T22:13:46.407Z,100820.03
2023-02-17T22:16:49.853Z,100825.13
2023-02-17T22:19:53.148Z,100815.28
2023-02-17T22:22:56.102Z,100812.84
2023-02-17T22:25:59.065Z,100824.03
2023-02-17T22:29:02.088Z,100821.03
2023-02-17T22:32:05.371Z,100825.34
2023-02-17T22:35:08.749Z,100816.06
2023-02-17T22:38:11.723Z,100809.91
2023-02-17T22:41:17.693Z,100825.56
2023-02-17T22:44:20.650Z,100841.53
2023-02-17T22:47:23.594Z,100841.31
2023-02-17T22:50:26.485Z,100850.81
2023-02-17T22:53:29.322Z,100854.81
2023-02-17T22:56:32.513Z,100858.56
2023-02-17T22:59:35.894Z,100865.75
2023-02-17T23:02:38.967Z,100863.91
2023-02-17T23:05:43.156Z,100855.44
2023-02-17T23:08:49.696Z,100867.03
2023-02-17T23:11:57.637Z,100874.47
2023-02-17T23:15:00.995Z,100864.00
2023-02-17T23:18:03.938Z,100868.22
2023-02-17T23:21:12.846Z,100868.59
2023-02-17T23:24:16.929Z,100871.69
2023-02-17T23:27:19.993Z,100877.16
2023-02-17T23:30:23.451Z,100884.97
2023-02-17T23:33:26.375Z,100893.97
2023-02-17T23:36:29.193Z,100899.88
2023-02-17T23:39:32.158Z,100908.03
2023-02-17T23:42:36.908Z,100904.94
2023-02-17T23:45:39.809Z,100890.59
2023-02-17T23:48:42.829Z,100902.59
2023-02-17T23:51:47.004Z,100901.78
2023-02-17T23:54:51.309Z,100897.16
2023-02-17T23:57:54.190Z,100889.06
